Time,TemperatureF,DewpointF,PressureIn,WindDirection,WindDirectionDegrees,WindSpeedMPH,WindSpeedGustMPH,Humidity,HourlyPrecipIn,Conditions,Clouds,dailyrainin,SolarRadiationWatts/m^2,SoftwareType,DateUTC
2013-03-01 00:02:00,48.0,33.0,-100.00,NNW,327,4.0,9.0,55,0.00,,,0.00,0.000000,,2013-03-01 06:02:00,
2013-03-01 00:11:00,48.0,33.0,-100.00,NNW,327,4.0,9.0,55,0.00,,,0.00,0.000000,,2013-03-01 06:11:00,
2013-03-01 00:22:00,48.0,33.0,-100.00,NNW,327,4.0,9.0,55,0.00,,,0.00,0.000000,,2013-03-01 06:22:00,
2013-03-01 00:53:00,47.0,33.0,-100.00,NNW,344,4.0,8.0,57,0.00,,,0.00,0.000000,,2013-03-01 06:53:00,
2013-03-01 01:02:00,47.0,33.0,-100.00,NNW,344,4.0,8.0,57,0.00,,,0.00,0.000000,,2013-03-01 07:02:00,
2013-03-01 01:11:00,47.0,33.0,-100.00,NNW,344,4.0,8.0,57,0.00,,,0.00,0.000000,,2013-03-01 07:11:00,
2013-03-01 01:22:00,47.0,33.0,-100.00,NNW,344,4.0,8.0,57,0.00,,,0.00,0.000000,,2013-03-01 07:22:00,
2013-03-01 01:52:00,44.0,34.0,-100.00,NNW,337,3.0,5.0,67,0.00,,,0.00,0.000000,,2013-03-01 07:52:00,
2013-03-01 02:02:00,44.0,34.0,-100.00,NNW,337,3.0,5.0,67,0.00,,,0.00,0.000000,,2013-03-01 08:02:00,
2013-03-01 02:12:00,44.0,34.0,-100.00,NNW,337,3.0,5.0,67,0.00,,,0.00,0.000000,,2013-03-01 08:12:00,
2013-03-01 02:22:00,44.0,34.0,-100.00,NNW,337,3.0,5.0,67,0.00,,,0.00,0.000000,,2013-03-01 08:22:00,
2013-03-01 02:53:00,41.0,34.0,-100.00,North,4,2.0,7.0,77,0.00,,,0.00,0.000000,,2013-03-01 08:53:00,
2013-03-01 03:02:00,41.0,34.0,-100.00,North,4,2.0,7.0,77,0.00,,,0.00,0.000000,,2013-03-01 09:02:00,
2013-03-01 03:12:00,41.0,34.0,-100.00,North,4,2.0,7.0,77,0.00,,,0.00,0.000000,,2013-03-01 09:12:00,
2013-03-01 03:22:00,41.0,34.0,-100.00,North,4,2.0,7.0,77,0.00,,,0.00,0.000000,,2013-03-01 09:22:00,
2013-03-01 03:52:00,37.0,35.0,-100.00,NNE,12,0.0,2.0,92,0.00,,,0.00,0.000000,,2013-03-01 09:52:00,
2013-03-01 04:02:00,37.0,35.0,-100.00,NNE,12,0.0,2.0,92,0.00,,,0.00,0.000000,,2013-03-01 10:02:00,
2013-03-01 04:11:00,37.0,35.0,-100.00,NNE,12,0.0,2.0,92,0.00,,,0.00,0.000000,,2013-03-01 10:11:00,
2013-03-01 04:22:00,37.0,35.0,-100.00,NNE,12,0.0,2.0,92,0.00,,,0.00,0.000000,,2013-03-01 10:22:00,
2013-03-01 04:53:00,38.0,37.0,-100.00,North,349,0.0,2.0,95,0.00,,,0.00,0.000000,,2013-03-01 10:53:00,
2013-03-01 05:01:00,38.0,37.0,-100.00,North,349,0.0,2.0,95,0.00,,,0.00,0.000000,,2013-03-01 11:01:00,
2013-03-01 05:11:00,38.0,37.0,-100.00,North,349,0.0,2.0,95,0.00,,,0.00,0.000000,,2013-03-01 11:11:00,
2013-03-01 05:22:00,38.0,37.0,-100.00,North,349,0.0,2.0,95,0.00,,,0.00,0.000000,,2013-03-01 11:22:00,
2013-03-01 05:52:00,40.0,37.0,-100.00,NNW,341,2.0,4.0,88,0.00,,,0.00,0.000000,,2013-03-01 11:52:00,
2013-03-01 06:02:00,40.0,37.0,-100.00,NNW,341,2.0,4.0,88,0.00,,,0.00,0.000000,,2013-03-01 12:02:00,
2013-03-01 06:11:00,40.0,37.0,-100.00,NNW,341,2.0,4.0,88,0.00,,,0.00,0.000000,,2013-03-01 12:11:00,
2013-03-01 06:21:00,40.0,37.0,-100.00,NNW,341,2.0,4.0,88,0.00,,,0.00,0.000000,,2013-03-01 12:21:00,
2013-03-01 06:52:00,41.0,37.0,-100.00,North,359,2.0,4.0,84,0.00,,,0.00,0.000000,,2013-03-01 12:52:00,
2013-03-01 07:01:00,41.0,37.0,-100.00,North,359,2.0,4.0,84,0.00,,,0.00,0.000000,,2013-03-01 13:01:00,
2013-03-01 07:11:00,41.0,37.0,-100.00,North,359,2.0,4.0,84,0.00,,,0.00,0.000000,,2013-03-01 13:11:00,
2013-03-01 07:22:00,41.0,37.0,-100.00,North,359,2.0,4.0,84,0.00,,,0.00,0.000000,,2013-03-01 13:22:00,
2013-03-01 07:52:00,42.0,38.0,-100.00,NNE,15,1.0,3.0,87,0.00,,,0.00,33.000000,,2013-03-01 13:52:00,
2013-03-01 08:01:00,42.0,38.0,-100.00,NNE,15,1.0,3.0,87,0.00,,,0.00,33.000000,,2013-03-01 14:01:00,
2013-03-01 08:11:00,42.0,38.0,-100.00,NNE,15,1.0,3.0,87,0.00,,,0.00,33.000000,,2013-03-01 14:11:00,
2013-03-01 08:21:00,42.0,38.0,-100.00,NNE,15,1.0,3.0,87,0.00,,,0.00,33.000000,,2013-03-01 14:21:00,
2013-03-01 08:52:00,45.0,37.0,-100.00,NE,34,2.0,4.0,72,0.00,,,0.00,153.000000,,2013-03-01 14:52:00,
2013-03-01 09:01:00,45.0,37.0,-100.00,NE,34,2.0,4.0,72,0.00,,,0.00,153.000000,,2013-03-01 15:01:00,
2013-03-01 09:11:00,45.0,37.0,-100.00,NE,34,2.0,4.0,72,0.00,,,0.00,153.000000,,2013-03-01 15:11:00,
2013-03-01 09:21:00,45.0,37.0,-100.00,NE,34,2.0,4.0,72,0.00,,,0.00,153.000000,,2013-03-01 15:21:00,
2013-03-01 09:52:00,48.0,34.0,-100.00,NE,55,3.0,5.0,58,0.00,,,-99.99,296.000000,,2013-03-01 15:52:00,
2013-03-01 10:01:00,48.0,34.0,-100.00,NE,55,3.0,5.0,58,0.00,,,-99.99,296.000000,,2013-03-01 16:01:00,
2013-03-01 10:11:00,48.0,34.0,-100.00,NE,55,3.0,5.0,58,0.00,,,-99.99,296.000000,,2013-03-01 16:11:00,
2013-03-01 10:21:00,48.0,34.0,-100.00,NE,55,3.0,5.0,58,0.00,,,-99.99,296.000000,,2013-03-01 16:21:00,
2013-03-01 10:52:00,54.0,33.0,-100.00,SW,216,3.0,6.0,45,0.00,,,0.00,570.000000,,2013-03-01 16:52:00,
2013-03-01 11:01:00,54.0,33.0,-100.00,SW,216,3.0,6.0,45,0.00,,,0.00,570.000000,,2013-03-01 17:01:00,
2013-03-01 11:11:00,54.0,33.0,-100.00,SW,216,3.0,6.0,45,0.00,,,0.00,570.000000,,2013-03-01 17:11:00,
2013-03-01 11:21:00,54.0,33.0,-100.00,SW,216,3.0,6.0,45,0.00,,,0.00,570.000000,,2013-03-01 17:21:00,
2013-03-01 11:52:00,57.0,33.0,-100.00,SW,226,4.0,9.0,40,0.00,,,0.00,739.000000,,2013-03-01 17:52:00,
2013-03-01 12:01:00,57.0,33.0,-100.00,SW,226,4.0,9.0,40,0.00,,,0.00,739.000000,,2013-03-01 18:01:00,
2013-03-01 12:12:00,57.0,33.0,-100.00,SW,226,4.0,9.0,40,0.00,,,0.00,739.000000,,2013-03-01 18:12:00,
2013-03-01 12:22:00,57.0,33.0,-100.00,SW,226,4.0,9.0,40,0.00,,,0.00,739.000000,,2013-03-01 18:22:00,
2013-03-01 12:52:00,57.0,30.0,-100.00,WNW,301,6.0,17.0,36,0.00,,,0.00,707.000000,,2013-03-01 18:52:00,
2013-03-01 13:01:00,57.0,30.0,-100.00,WNW,301,6.0,17.0,36,0.00,,,0.00,707.000000,,2013-03-01 19:01:00,
2013-03-01 13:11:00,57.0,30.0,-100.00,WNW,301,6.0,17.0,36,0.00,,,0.00,707.000000,,2013-03-01 19:11:00,
2013-03-01 13:21:00,57.0,30.0,-100.00,WNW,301,6.0,17.0,36,0.00,,,0.00,707.000000,,2013-03-01 19:21:00,
2013-03-01 13:52:00,57.0,35.0,-100.00,SW,232,5.0,12.0,44,0.00,,,0.00,678.000000,,2013-03-01 19:52:00,
2013-03-01 14:01:00,57.0,35.0,-100.00,SW,232,5.0,12.0,44,0.00,,,0.00,678.000000,,2013-03-01 20:01:00,
2013-03-01 14:11:00,57.0,35.0,-100.00,SW,232,5.0,12.0,44,0.00,,,0.00,678.000000,,2013-03-01 20:11:00,
2013-03-01 14:21:00,57.0,35.0,-100.00,SW,232,5.0,12.0,44,0.00,,,0.00,678.000000,,2013-03-01 20:21:00,
2013-03-01 14:52:00,60.0,37.0,-100.00,SSW,203,5.0,12.0,42,0.00,,,0.00,739.000000,,2013-03-01 20:52:00,
2013-03-01 15:01:00,60.0,37.0,-100.00,SSW,203,5.0,12.0,42,0.00,,,0.00,739.000000,,2013-03-01 21:01:00,
2013-03-01 15:11:00,60.0,37.0,-100.00,SSW,203,5.0,12.0,42,0.00,,,0.00,739.000000,,2013-03-01 21:11:00,
2013-03-01 15:21:00,60.0,37.0,-100.00,SSW,203,5.0,12.0,42,0.00,,,0.00,739.000000,,2013-03-01 21:21:00,
2013-03-01 15:52:00,59.0,36.0,-100.00,WSW,255,7.0,14.0,42,0.00,,,0.00,637.000000,,2013-03-01 21:52:00,
2013-03-01 16:01:00,59.0,36.0,-100.00,WSW,255,7.0,14.0,42,0.00,,,0.00,637.000000,,2013-03-01 22:01:00,
2013-03-01 16:11:00,59.0,36.0,-100.00,WSW,255,7.0,14.0,42,0.00,,,0.00,637.000000,,2013-03-01 22:11:00,
2013-03-01 16:21:00,59.0,36.0,-100.00,WSW,255,7.0,14.0,42,0.00,,,0.00,637.000000,,2013-03-01 22:21:00,
2013-03-01 16:52:00,57.0,35.0,-100.00,West,268,4.0,13.0,44,0.00,,,0.00,299.000000,,2013-03-01 22:52:00,
2013-03-01 17:01:00,57.0,35.0,-100.00,West,268,4.0,13.0,44,0.00,,,0.00,299.000000,,2013-03-01 23:01:00,
2013-03-01 17:11:00,57.0,35.0,-100.00,West,268,4.0,13.0,44,0.00,,,0.00,299.000000,,2013-03-01 23:11:00,
2013-03-01 17:21:00,57.0,35.0,-100.00,West,268,4.0,13.0,44,0.00,,,0.00,299.000000,,2013-03-01 23:21:00,
2013-03-01 17:52:00,57.0,27.0,-100.00,NW,322,5.0,11.0,32,0.00,,,0.00,137.000000,,2013-03-01 23:52:00,
2013-03-01 18:02:00,57.0,27.0,-100.00,NW,322,5.0,11.0,32,0.00,,,0.00,137.000000,,2013-03-02 00:02:00,
2013-03-01 18:11:00,57.0,27.0,-100.00,NW,322,5.0,11.0,32,0.00,,,0.00,137.000000,,2013-03-02 00:11:00,
2013-03-01 18:21:00,57.0,27.0,-100.00,NW,322,5.0,11.0,32,0.00,,,0.00,137.000000,,2013-03-02 00:21:00,
2013-03-01 18:52:00,53.0,28.0,-100.00,NW,315,3.0,13.0,38,0.00,,,0.00,12.000000,,2013-03-02 00:52:00,
2013-03-01 19:01:00,53.0,28.0,-100.00,NW,315,3.0,13.0,38,0.00,,,0.00,12.000000,,2013-03-02 01:01:00,
2013-03-01 19:11:00,53.0,28.0,-100.00,NW,315,3.0,13.0,38,0.00,,,0.00,12.000000,,2013-03-02 01:11:00,
2013-03-01 19:21:00,53.0,28.0,-100.00,NW,315,3.0,13.0,38,0.00,,,0.00,12.000000,,2013-03-02 01:21:00,
2013-03-01 19:52:00,51.0,29.0,-100.00,NNW,332,5.0,12.0,43,0.00,,,0.00,0.000000,,2013-03-02 01:52:00,
2013-03-01 20:01:00,51.0,29.0,-100.00,NNW,332,5.0,12.0,43,0.00,,,0.00,0.000000,,2013-03-02 02:01:00,
2013-03-01 20:11:00,51.0,29.0,-100.00,NNW,332,5.0,12.0,43,0.00,,,0.00,0.000000,,2013-03-02 02:11:00,
2013-03-01 20:22:00,51.0,29.0,-100.00,NNW,332,5.0,12.0,43,0.00,,,0.00,0.000000,,2013-03-02 02:22:00,
2013-03-01 20:52:00,49.0,29.0,-100.00,NNW,345,5.0,12.0,45,0.00,,,0.00,0.000000,,2013-03-02 02:52:00,
2013-03-01 21:02:00,49.0,29.0,-100.00,NNW,345,5.0,12.0,45,0.00,,,0.00,0.000000,,2013-03-02 03:02:00,
2013-03-01 21:11:00,49.0,29.0,-100.00,NNW,345,5.0,12.0,45,0.00,,,0.00,0.000000,,2013-03-02 03:11:00,
2013-03-01 21:21:00,49.0,29.0,-100.00,NNW,345,5.0,12.0,45,0.00,,,0.00,0.000000,,2013-03-02 03:21:00,
2013-03-01 21:52:00,47.0,29.0,-100.00,NNW,340,9.0,18.0,50,0.00,,,0.00,0.000000,,2013-03-02 03:52:00,
2013-03-01 22:01:00,47.0,29.0,-100.00,NNW,340,9.0,18.0,50,0.00,,,0.00,0.000000,,2013-03-02 04:01:00,
2013-03-01 22:11:00,47.0,29.0,-100.00,NNW,340,9.0,18.0,50,0.00,,,0.00,0.000000,,2013-03-02 04:11:00,
2013-03-01 22:21:00,47.0,29.0,-100.00,NNW,340,9.0,18.0,50,0.00,,,0.00,0.000000,,2013-03-02 04:21:00,
2013-03-01 22:52:00,44.0,29.0,-100.00,NNW,345,5.0,19.0,56,0.00,,,0.00,0.000000,,2013-03-02 04:52:00,
2013-03-01 23:02:00,44.0,29.0,-100.00,NNW,345,5.0,19.0,56,0.00,,,0.00,0.000000,,2013-03-02 05:02:00,
2013-03-01 23:12:00,44.0,29.0,-100.00,NNW,345,5.0,19.0,56,0.00,,,0.00,0.000000,,2013-03-02 05:12:00,
2013-03-01 23:22:00,44.0,29.0,-100.00,NNW,345,5.0,19.0,56,0.00,,,0.00,0.000000,,2013-03-02 05:22:00,
2013-03-01 23:52:00,41.0,29.0,-100.00,North,1,3.0,11.0,63,0.00,,,0.00,0.000000,,2013-03-02 05:52:00,